sensor_id;sensor_type;location;lat;lon;timestamp;P1;durP1;ratioP1;P2;durP2;ratioP2
40601;SDS011;26310;50.278;19.032;2022-07-18T00:01:19;7.87;;;3.50;;
40601;SDS011;26310;50.278;19.032;2022-07-18T00:06:22;5.67;;;3.47;;
40601;SDS011;26310;50.278;19.032;2022-07-18T00:11:25;6.67;;;3.50;;
40601;SDS011;26310;50.278;19.032;2022-07-18T00:16:28;7.07;;;3.50;;
40601;SDS011;26310;50.278;19.032;2022-07-18T00:21:31;5.40;;;3.17;;
40601;SDS011;26310;50.278;19.032;2022-07-18T00:26:35;4.67;;;2.70;;
40601;SDS011;26310;50.278;19.032;2022-07-18T00:31:38;3.57;;;2.57;;
40601;SDS011;26310;50.278;19.032;2022-07-18T00:36:41;5.77;;;2.57;;
40601;SDS011;26310;50.278;19.032;2022-07-18T00:41:47;4.87;;;2.70;;
40601;SDS011;26310;50.278;19.032;2022-07-18T00:46:51;6.07;;;2.87;;
40601;SDS011;26310;50.278;19.032;2022-07-18T00:51:54;5.07;;;2.50;;
40601;SDS011;26310;50.278;19.032;2022-07-18T00:56:57;6.87;;;3.17;;
40601;SDS011;26310;50.278;19.032;2022-07-18T01:02:00;4.90;;;2.60;;
40601;SDS011;26310;50.278;19.032;2022-07-18T01:07:03;4.00;;;2.60;;
40601;SDS011;26310;50.278;19.032;2022-07-18T01:12:05;6.60;;;2.67;;
40601;SDS011;26310;50.278;19.032;2022-07-18T01:17:12;3.80;;;2.60;;
40601;SDS011;26310;50.278;19.032;2022-07-18T01:22:19;3.17;;;2.13;;
40601;SDS011;26310;50.278;19.032;2022-07-18T01:27:22;2.97;;;2.27;;
40601;SDS011;26310;50.278;19.032;2022-07-18T01:32:25;6.83;;;2.53;;
40601;SDS011;26310;50.278;19.032;2022-07-18T01:37:28;3.20;;;2.30;;
40601;SDS011;26310;50.278;19.032;2022-07-18T01:42:31;3.87;;;2.50;;
40601;SDS011;26310;50.278;19.032;2022-07-18T01:47:34;3.60;;;2.47;;
40601;SDS011;26310;50.278;19.032;2022-07-18T01:52:37;4.43;;;2.40;;
40601;SDS011;26310;50.278;19.032;2022-07-18T01:57:40;4.97;;;2.47;;
40601;SDS011;26310;50.278;19.032;2022-07-18T02:02:43;5.50;;;2.53;;
40601;SDS011;26310;50.278;19.032;2022-07-18T02:07:46;6.83;;;2.70;;
40601;SDS011;26310;50.278;19.032;2022-07-18T02:12:48;5.17;;;2.37;;
40601;SDS011;26310;50.278;19.032;2022-07-18T02:17:51;4.23;;;2.60;;
40601;SDS011;26310;50.278;19.032;2022-07-18T02:22:54;3.87;;;2.80;;
40601;SDS011;26310;50.278;19.032;2022-07-18T02:27:56;2.83;;;2.53;;
40601;SDS011;26310;50.278;19.032;2022-07-18T02:32:59;5.00;;;2.27;;
40601;SDS011;26310;50.278;19.032;2022-07-18T02:38:02;3.40;;;2.20;;
40601;SDS011;26310;50.278;19.032;2022-07-18T02:43:05;3.60;;;2.10;;
40601;SDS011;26310;50.278;19.032;2022-07-18T02:48:07;4.00;;;2.50;;
40601;SDS011;26310;50.278;19.032;2022-07-18T02:53:10;4.80;;;2.20;;
40601;SDS011;26310;50.278;19.032;2022-07-18T02:58:13;2.37;;;1.90;;
40601;SDS011;26310;50.278;19.032;2022-07-18T03:03:16;3.33;;;2.13;;
40601;SDS011;26310;50.278;19.032;2022-07-18T03:08:18;4.27;;;2.17;;
40601;SDS011;26310;50.278;19.032;2022-07-18T03:13:21;4.63;;;2.40;;
40601;SDS011;26310;50.278;19.032;2022-07-18T03:18:24;3.57;;;2.77;;
40601;SDS011;26310;50.278;19.032;2022-07-18T03:23:27;8.97;;;2.73;;
40601;SDS011;26310;50.278;19.032;2022-07-18T03:28:30;4.27;;;2.70;;
40601;SDS011;26310;50.278;19.032;2022-07-18T03:33:33;5.47;;;2.97;;
40601;SDS011;26310;50.278;19.032;2022-07-18T03:38:35;5.47;;;3.20;;
40601;SDS011;26310;50.278;19.032;2022-07-18T03:43:39;6.83;;;3.40;;
40601;SDS011;26310;50.278;19.032;2022-07-18T03:48:42;6.33;;;3.47;;
40601;SDS011;26310;50.278;19.032;2022-07-18T03:53:45;4.93;;;3.80;;
40601;SDS011;26310;50.278;19.032;2022-07-18T03:58:47;8.73;;;4.03;;
40601;SDS011;26310;50.278;19.032;2022-07-18T04:03:50;6.00;;;4.10;;
40601;SDS011;26310;50.278;19.032;2022-07-18T04:08:53;9.50;;;4.10;;
40601;SDS011;26310;50.278;19.032;2022-07-18T04:13:56;6.03;;;3.70;;
40601;SDS011;26310;50.278;19.032;2022-07-18T04:18:58;9.43;;;3.80;;
40601;SDS011;26310;50.278;19.032;2022-07-18T04:24:01;5.60;;;3.43;;
40601;SDS011;26310;50.278;19.032;2022-07-18T04:29:05;6.27;;;3.60;;
40601;SDS011;26310;50.278;19.032;2022-07-18T04:34:08;9.27;;;4.30;;
40601;SDS011;26310;50.278;19.032;2022-07-18T04:39:10;8.87;;;4.10;;
40601;SDS011;26310;50.278;19.032;2022-07-18T04:44:13;6.73;;;3.77;;
40601;SDS011;26310;50.278;19.032;2022-07-18T04:49:16;7.00;;;3.90;;
40601;SDS011;26310;50.278;19.032;2022-07-18T04:54:18;8.03;;;4.43;;
40601;SDS011;26310;50.278;19.032;2022-07-18T04:59:21;6.97;;;3.67;;
40601;SDS011;26310;50.278;19.032;2022-07-18T05:04:24;12.67;;;4.50;;
40601;SDS011;26310;50.278;19.032;2022-07-18T05:09:27;5.73;;;3.77;;
40601;SDS011;26310;50.278;19.032;2022-07-18T05:14:30;7.03;;;3.87;;
40601;SDS011;26310;50.278;19.032;2022-07-18T05:19:38;7.00;;;3.70;;
40601;SDS011;26310;50.278;19.032;2022-07-18T05:24:40;6.80;;;3.43;;
40601;SDS011;26310;50.278;19.032;2022-07-18T05:29:43;8.27;;;4.00;;
40601;SDS011;26310;50.278;19.032;2022-07-18T05:34:46;7.93;;;3.87;;
40601;SDS011;26310;50.278;19.032;2022-07-18T05:39:48;7.63;;;3.97;;
40601;SDS011;26310;50.278;19.032;2022-07-18T05:44:54;7.40;;;3.03;;
40601;SDS011;26310;50.278;19.032;2022-07-18T05:49:57;8.60;;;3.50;;
40601;SDS011;26310;50.278;19.032;2022-07-18T05:54:59;10.13;;;3.93;;
40601;SDS011;26310;50.278;19.032;2022-07-18T06:00:04;7.97;;;3.60;;
40601;SDS011;26310;50.278;19.032;2022-07-18T06:05:08;6.87;;;3.40;;
40601;SDS011;26310;50.278;19.032;2022-07-18T06:10:24;9.17;;;3.20;;
40601;SDS011;26310;50.278;19.032;2022-07-18T06:15:28;10.57;;;3.13;;
40601;SDS011;26310;50.278;19.032;2022-07-18T06:20:31;4.97;;;3.00;;
40601;SDS011;26310;50.278;19.032;2022-07-18T06:25:33;5.30;;;2.70;;
40601;SDS011;26310;50.278;19.032;2022-07-18T06:30:36;7.00;;;2.83;;
40601;SDS011;26310;50.278;19.032;2022-07-18T06:35:39;9.83;;;2.80;;
40601;SDS011;26310;50.278;19.032;2022-07-18T06:40:42;9.07;;;2.67;;
40601;SDS011;26310;50.278;19.032;2022-07-18T06:45:46;5.97;;;2.50;;
40601;SDS011;26310;50.278;19.032;2022-07-18T06:50:49;3.97;;;2.90;;
40601;SDS011;26310;50.278;19.032;2022-07-18T06:55:52;6.93;;;2.20;;
40601;SDS011;26310;50.278;19.032;2022-07-18T07:00:54;3.87;;;2.43;;
40601;SDS011;26310;50.278;19.032;2022-07-18T07:05:57;2.63;;;1.90;;
40601;SDS011;26310;50.278;19.032;2022-07-18T07:11:00;5.37;;;1.90;;
40601;SDS011;26310;50.278;19.032;2022-07-18T07:16:03;3.30;;;1.30;;
40601;SDS011;26310;50.278;19.032;2022-07-18T07:21:06;3.30;;;1.83;;
40601;SDS011;26310;50.278;19.032;2022-07-18T07:26:09;3.90;;;1.80;;
40601;SDS011;26310;50.278;19.032;2022-07-18T07:31:12;5.30;;;1.70;;
40601;SDS011;26310;50.278;19.032;2022-07-18T07:36:15;2.67;;;1.60;;
40601;SDS011;26310;50.278;19.032;2022-07-18T07:41:17;3.00;;;1.70;;
40601;SDS011;26310;50.278;19.032;2022-07-18T07:46:20;4.97;;;1.70;;
40601;SDS011;26310;50.278;19.032;2022-07-18T07:51:23;5.50;;;1.80;;
40601;SDS011;26310;50.278;19.032;2022-07-18T07:56:31;3.20;;;1.50;;
40601;SDS011;26310;50.278;19.032;2022-07-18T08:01:34;3.70;;;1.52;;
40601;SDS011;26310;50.278;19.032;2022-07-18T08:06:37;4.93;;;1.90;;
40601;SDS011;26310;50.278;19.032;2022-07-18T08:11:40;2.55;;;1.20;;
40601;SDS011;26310;50.278;19.032;2022-07-18T08:16:43;3.72;;;1.60;;
40601;SDS011;26310;50.278;19.032;2022-07-18T08:21:46;4.10;;;1.45;;
40601;SDS011;26310;50.278;19.032;2022-07-18T08:26:49;4.27;;;1.70;;
40601;SDS011;26310;50.278;19.032;2022-07-18T08:31:51;2.65;;;1.40;;
40601;SDS011;26310;50.278;19.032;2022-07-18T08:36:54;2.75;;;1.30;;
40601;SDS011;26310;50.278;19.032;2022-07-18T08:41:57;3.40;;;1.48;;
40601;SDS011;26310;50.278;19.032;2022-07-18T08:47:02;4.43;;;1.55;;
40601;SDS011;26310;50.278;19.032;2022-07-18T08:52:06;3.97;;;1.70;;
40601;SDS011;26310;50.278;19.032;2022-07-18T08:57:24;1.73;;;1.40;;
40601;SDS011;26310;50.278;19.032;2022-07-18T09:02:27;1.75;;;1.17;;
40601;SDS011;26310;50.278;19.032;2022-07-18T09:07:33;2.95;;;1.50;;
40601;SDS011;26310;50.278;19.032;2022-07-18T09:12:39;1.50;;;1.30;;
40601;SDS011;26310;50.278;19.032;2022-07-18T09:18:04;2.35;;;1.20;;
40601;SDS011;26310;50.278;19.032;2022-07-18T09:23:27;2.65;;;1.50;;
40601;SDS011;26310;50.278;19.032;2022-07-18T09:28:48;2.78;;;1.30;;
40601;SDS011;26310;50.278;19.032;2022-07-18T09:34:12;2.92;;;1.10;;
40601;SDS011;26310;50.278;19.032;2022-07-18T09:39:18;2.20;;;1.13;;
40601;SDS011;26310;50.278;19.032;2022-07-18T09:44:22;4.53;;;1.50;;
40601;SDS011;26310;50.278;19.032;2022-07-18T09:49:28;4.32;;;1.35;;
40601;SDS011;26310;50.278;19.032;2022-07-18T09:59:43;1.33;;;0.98;;
40601;SDS011;26310;50.278;19.032;2022-07-18T10:04:49;1.83;;;1.00;;
40601;SDS011;26310;50.278;19.032;2022-07-18T10:09:52;3.83;;;1.20;;
40601;SDS011;26310;50.278;19.032;2022-07-18T10:14:55;1.80;;;1.20;;
40601;SDS011;26310;50.278;19.032;2022-07-18T10:20:05;3.03;;;1.25;;
40601;SDS011;26310;50.278;19.032;2022-07-18T10:25:10;4.25;;;1.58;;
40601;SDS011;26310;50.278;19.032;2022-07-18T10:30:13;2.75;;;1.20;;
40601;SDS011;26310;50.278;19.032;2022-07-18T10:35:17;1.80;;;1.17;;
40601;SDS011;26310;50.278;19.032;2022-07-18T10:40:29;1.13;;;0.95;;
40601;SDS011;26310;50.278;19.032;2022-07-18T10:45:42;1.15;;;1.00;;
40601;SDS011;26310;50.278;19.032;2022-07-18T10:50:59;2.03;;;1.30;;
40601;SDS011;26310;50.278;19.032;2022-07-18T10:56:12;2.08;;;1.30;;
40601;SDS011;26310;50.278;19.032;2022-07-18T11:01:16;1.67;;;1.10;;
40601;SDS011;26310;50.278;19.032;2022-07-18T11:06:19;1.60;;;1.00;;
40601;SDS011;26310;50.278;19.032;2022-07-18T11:11:22;2.63;;;1.08;;
40601;SDS011;26310;50.278;19.032;2022-07-18T11:16:24;1.27;;;1.05;;
40601;SDS011;26310;50.278;19.032;2022-07-18T11:21:31;2.90;;;1.30;;
40601;SDS011;26310;50.278;19.032;2022-07-18T11:26:44;2.22;;;1.40;;
40601;SDS011;26310;50.278;19.032;2022-07-18T11:31:49;3.60;;;1.15;;
40601;SDS011;26310;50.278;19.032;2022-07-18T11:36:53;3.05;;;1.15;;
40601;SDS011;26310;50.278;19.032;2022-07-18T11:41:56;1.90;;;1.10;;
40601;SDS011;26310;50.278;19.032;2022-07-18T11:52:05;2.28;;;1.30;;
40601;SDS011;26310;50.278;19.032;2022-07-18T11:57:08;2.53;;;1.20;;
40601;SDS011;26310;50.278;19.032;2022-07-18T12:02:11;1.45;;;1.08;;
40601;SDS011;26310;50.278;19.032;2022-07-18T12:07:16;1.77;;;0.95;;
40601;SDS011;26310;50.278;19.032;2022-07-18T12:12:21;2.42;;;1.30;;
40601;SDS011;26310;50.278;19.032;2022-07-18T12:17:25;1.50;;;1.00;;
40601;SDS011;26310;50.278;19.032;2022-07-18T12:22:28;2.03;;;1.27;;
40601;SDS011;26310;50.278;19.032;2022-07-18T12:37:56;2.00;;;1.08;;
40601;SDS011;26310;50.278;19.032;2022-07-18T12:43:04;1.58;;;1.00;;
40601;SDS011;26310;50.278;19.032;2022-07-18T12:48:10;1.90;;;1.00;;
40601;SDS011;26310;50.278;19.032;2022-07-18T12:53:13;1.58;;;0.90;;
40601;SDS011;26310;50.278;19.032;2022-07-18T12:58:16;2.08;;;1.13;;
40601;SDS011;26310;50.278;19.032;2022-07-18T13:03:19;1.50;;;0.80;;
40601;SDS011;26310;50.278;19.032;2022-07-18T13:08:22;1.98;;;0.90;;
40601;SDS011;26310;50.278;19.032;2022-07-18T13:13:28;3.20;;;1.40;;
40601;SDS011;26310;50.278;19.032;2022-07-18T13:18:32;3.08;;;1.40;;
40601;SDS011;26310;50.278;19.032;2022-07-18T13:23:34;1.85;;;1.00;;
40601;SDS011;26310;50.278;19.032;2022-07-18T13:28:37;1.77;;;1.10;;
40601;SDS011;26310;50.278;19.032;2022-07-18T13:33:40;2.47;;;1.20;;
40601;SDS011;26310;50.278;19.032;2022-07-18T13:38:42;3.17;;;1.48;;
40601;SDS011;26310;50.278;19.032;2022-07-18T13:43:45;1.98;;;1.20;;
40601;SDS011;26310;50.278;19.032;2022-07-18T13:48:48;2.00;;;1.35;;
40601;SDS011;26310;50.278;19.032;2022-07-18T13:53:51;3.22;;;1.60;;
40601;SDS011;26310;50.278;19.032;2022-07-18T13:58:54;1.05;;;0.75;;
40601;SDS011;26310;50.278;19.032;2022-07-18T14:03:56;2.95;;;1.20;;
40601;SDS011;26310;50.278;19.032;2022-07-18T14:08:59;1.70;;;1.00;;
40601;SDS011;26310;50.278;19.032;2022-07-18T14:14:03;2.53;;;1.27;;
40601;SDS011;26310;50.278;19.032;2022-07-18T14:19:06;1.63;;;0.88;;
40601;SDS011;26310;50.278;19.032;2022-07-18T14:24:09;2.95;;;1.33;;
40601;SDS011;26310;50.278;19.032;2022-07-18T14:29:11;2.90;;;1.38;;
40601;SDS011;26310;50.278;19.032;2022-07-18T14:34:14;1.38;;;1.00;;
40601;SDS011;26310;50.278;19.032;2022-07-18T14:39:18;1.10;;;0.77;;
40601;SDS011;26310;50.278;19.032;2022-07-18T14:44:20;1.38;;;1.00;;
40601;SDS011;26310;50.278;19.032;2022-07-18T14:49:23;1.30;;;1.02;;
40601;SDS011;26310;50.278;19.032;2022-07-18T14:54:27;1.25;;;0.90;;
40601;SDS011;26310;50.278;19.032;2022-07-18T14:59:30;1.80;;;1.10;;
40601;SDS011;26310;50.278;19.032;2022-07-18T15:04:33;3.53;;;1.35;;
40601;SDS011;26310;50.278;19.032;2022-07-18T15:09:37;1.77;;;1.10;;
40601;SDS011;26310;50.278;19.032;2022-07-18T15:14:39;1.05;;;0.80;;
40601;SDS011;26310;50.278;19.032;2022-07-18T15:19:42;3.50;;;1.23;;
40601;SDS011;26310;50.278;19.032;2022-07-18T15:24:45;1.42;;;0.80;;
40601;SDS011;26310;50.278;19.032;2022-07-18T15:29:47;1.55;;;1.05;;
40601;SDS011;26310;50.278;19.032;2022-07-18T15:34:50;1.30;;;1.10;;
40601;SDS011;26310;50.278;19.032;2022-07-18T15:39:53;2.03;;;1.10;;
40601;SDS011;26310;50.278;19.032;2022-07-18T15:44:55;2.33;;;1.08;;
40601;SDS011;26310;50.278;19.032;2022-07-18T15:49:58;1.98;;;1.10;;
40601;SDS011;26310;50.278;19.032;2022-07-18T15:55:01;2.50;;;1.00;;
40601;SDS011;26310;50.278;19.032;2022-07-18T16:00:04;1.80;;;1.10;;
40601;SDS011;26310;50.278;19.032;2022-07-18T16:05:08;1.27;;;1.10;;
40601;SDS011;26310;50.278;19.032;2022-07-18T16:10:11;1.95;;;1.08;;
40601;SDS011;26310;50.278;19.032;2022-07-18T16:15:14;2.38;;;1.63;;
40601;SDS011;26310;50.278;19.032;2022-07-18T16:20:16;2.03;;;1.10;;
40601;SDS011;26310;50.278;19.032;2022-07-18T16:25:19;2.63;;;1.52;;
40601;SDS011;26310;50.278;19.032;2022-07-18T16:30:22;2.72;;;1.23;;
40601;SDS011;26310;50.278;19.032;2022-07-18T16:35:25;1.88;;;1.30;;
40601;SDS011;26310;50.278;19.032;2022-07-18T16:40:28;1.40;;;1.17;;
40601;SDS011;26310;50.278;19.032;2022-07-18T16:45:31;2.28;;;1.20;;
40601;SDS011;26310;50.278;19.032;2022-07-18T16:50:34;2.15;;;1.38;;
40601;SDS011;26310;50.278;19.032;2022-07-18T16:55:37;1.92;;;1.13;;
40601;SDS011;26310;50.278;19.032;2022-07-18T17:00:41;1.70;;;1.10;;
40601;SDS011;26310;50.278;19.032;2022-07-18T17:05:43;2.72;;;1.77;;
40601;SDS011;26310;50.278;19.032;2022-07-18T17:10:47;2.40;;;1.33;;
40601;SDS011;26310;50.278;19.032;2022-07-18T17:15:51;2.33;;;1.55;;
40601;SDS011;26310;50.278;19.032;2022-07-18T17:20:54;3.03;;;1.30;;
40601;SDS011;26310;50.278;19.032;2022-07-18T17:25:57;1.85;;;1.35;;
40601;SDS011;26310;50.278;19.032;2022-07-18T17:31:00;1.60;;;1.10;;
40601;SDS011;26310;50.278;19.032;2022-07-18T17:36:03;1.50;;;1.08;;
40601;SDS011;26310;50.278;19.032;2022-07-18T17:41:08;3.72;;;1.30;;
40601;SDS011;26310;50.278;19.032;2022-07-18T17:46:11;2.00;;;1.25;;
40601;SDS011;26310;50.278;19.032;2022-07-18T17:51:15;1.70;;;1.17;;
40601;SDS011;26310;50.278;19.032;2022-07-18T17:56:19;2.45;;;1.55;;
40601;SDS011;26310;50.278;19.032;2022-07-18T18:01:22;1.73;;;1.33;;
40601;SDS011;26310;50.278;19.032;2022-07-18T18:06:25;2.00;;;1.15;;
40601;SDS011;26310;50.278;19.032;2022-07-18T18:11:30;2.20;;;1.48;;
40601;SDS011;26310;50.278;19.032;2022-07-18T18:16:33;2.00;;;1.48;;
40601;SDS011;26310;50.278;19.032;2022-07-18T18:21:36;2.65;;;1.42;;
40601;SDS011;26310;50.278;19.032;2022-07-18T18:26:38;2.72;;;1.67;;
40601;SDS011;26310;50.278;19.032;2022-07-18T18:31:42;3.05;;;1.58;;
40601;SDS011;26310;50.278;19.032;2022-07-18T18:36:45;1.88;;;1.20;;
40601;SDS011;26310;50.278;19.032;2022-07-18T18:41:57;2.60;;;1.50;;
40601;SDS011;26310;50.278;19.032;2022-07-18T18:47:01;1.92;;;1.30;;
40601;SDS011;26310;50.278;19.032;2022-07-18T18:52:04;2.83;;;1.45;;
40601;SDS011;26310;50.278;19.032;2022-07-18T18:57:07;2.13;;;1.35;;
40601;SDS011;26310;50.278;19.032;2022-07-18T19:02:10;11.27;;;4.32;;
40601;SDS011;26310;50.278;19.032;2022-07-18T19:07:13;3.30;;;2.50;;
40601;SDS011;26310;50.278;19.032;2022-07-18T19:12:16;3.55;;;2.17;;
40601;SDS011;26310;50.278;19.032;2022-07-18T19:17:18;3.80;;;2.10;;
40601;SDS011;26310;50.278;19.032;2022-07-18T19:22:21;4.95;;;2.58;;
40601;SDS011;26310;50.278;19.032;2022-07-18T19:27:24;4.45;;;2.90;;
40601;SDS011;26310;50.278;19.032;2022-07-18T19:32:27;3.40;;;2.80;;
40601;SDS011;26310;50.278;19.032;2022-07-18T19:37:29;3.78;;;3.00;;
40601;SDS011;26310;50.278;19.032;2022-07-18T19:42:33;4.85;;;3.58;;
40601;SDS011;26310;50.278;19.032;2022-07-18T19:47:36;4.68;;;3.42;;
40601;SDS011;26310;50.278;19.032;2022-07-18T19:52:39;3.63;;;2.50;;
40601;SDS011;26310;50.278;19.032;2022-07-18T19:57:41;5.60;;;2.92;;
40601;SDS011;26310;50.278;19.032;2022-07-18T20:02:47;4.75;;;2.53;;
40601;SDS011;26310;50.278;19.032;2022-07-18T20:07:50;3.95;;;2.60;;
40601;SDS011;26310;50.278;19.032;2022-07-18T20:12:54;4.72;;;2.60;;
40601;SDS011;26310;50.278;19.032;2022-07-18T20:17:57;4.78;;;2.72;;
40601;SDS011;26310;50.278;19.032;2022-07-18T20:23:01;5.10;;;2.40;;
40601;SDS011;26310;50.278;19.032;2022-07-18T20:28:05;3.83;;;2.45;;
40601;SDS011;26310;50.278;19.032;2022-07-18T20:33:08;5.65;;;2.58;;
40601;SDS011;26310;50.278;19.032;2022-07-18T20:38:11;3.50;;;2.28;;
40601;SDS011;26310;50.278;19.032;2022-07-18T20:43:13;4.53;;;2.58;;
40601;SDS011;26310;50.278;19.032;2022-07-18T20:48:16;4.93;;;2.25;;
40601;SDS011;26310;50.278;19.032;2022-07-18T20:53:19;3.70;;;2.63;;
40601;SDS011;26310;50.278;19.032;2022-07-18T20:58:22;3.78;;;2.88;;
40601;SDS011;26310;50.278;19.032;2022-07-18T21:03:25;3.65;;;2.40;;
40601;SDS011;26310;50.278;19.032;2022-07-18T21:08:28;4.38;;;3.10;;
40601;SDS011;26310;50.278;19.032;2022-07-18T21:13:31;7.85;;;3.72;;
40601;SDS011;26310;50.278;19.032;2022-07-18T21:18:34;6.60;;;3.60;;
40601;SDS011;26310;50.278;19.032;2022-07-18T21:23:36;4.90;;;3.05;;
40601;SDS011;26310;50.278;19.032;2022-07-18T21:28:39;4.93;;;3.07;;
40601;SDS011;26310;50.278;19.032;2022-07-18T21:33:42;5.78;;;2.60;;
40601;SDS011;26310;50.278;19.032;2022-07-18T21:38:45;10.20;;;3.45;;
40601;SDS011;26310;50.278;19.032;2022-07-18T21:43:48;5.85;;;3.00;;
40601;SDS011;26310;50.278;19.032;2022-07-18T21:48:51;5.50;;;3.00;;
40601;SDS011;26310;50.278;19.032;2022-07-18T21:53:53;6.47;;;3.15;;
40601;SDS011;26310;50.278;19.032;2022-07-18T21:58:56;3.65;;;2.78;;
40601;SDS011;26310;50.278;19.032;2022-07-18T22:03:59;4.93;;;3.13;;
40601;SDS011;26310;50.278;19.032;2022-07-18T22:09:09;6.15;;;4.03;;
40601;SDS011;26310;50.278;19.032;2022-07-18T22:14:12;6.47;;;4.97;;
40601;SDS011;26310;50.278;19.032;2022-07-18T22:19:16;5.32;;;4.10;;
40601;SDS011;26310;50.278;19.032;2022-07-18T22:24:18;6.13;;;4.03;;
40601;SDS011;26310;50.278;19.032;2022-07-18T22:29:21;5.40;;;3.80;;
40601;SDS011;26310;50.278;19.032;2022-07-18T22:34:24;5.37;;;3.70;;
40601;SDS011;26310;50.278;19.032;2022-07-18T22:39:27;5.03;;;3.70;;
40601;SDS011;26310;50.278;19.032;2022-07-18T22:44:30;6.03;;;3.60;;
40601;SDS011;26310;50.278;19.032;2022-07-18T22:49:33;4.90;;;3.50;;
40601;SDS011;26310;50.278;19.032;2022-07-18T22:54:36;11.17;;;4.40;;
40601;SDS011;26310;50.278;19.032;2022-07-18T22:59:39;7.55;;;3.72;;
40601;SDS011;26310;50.278;19.032;2022-07-18T23:04:41;6.00;;;3.87;;
40601;SDS011;26310;50.278;19.032;2022-07-18T23:09:44;8.07;;;4.17;;
40601;SDS011;26310;50.278;19.032;2022-07-18T23:14:47;10.38;;;4.97;;
40601;SDS011;26310;50.278;19.032;2022-07-18T23:19:50;7.97;;;4.30;;
40601;SDS011;26310;50.278;19.032;2022-07-18T23:24:54;6.80;;;4.50;;
40601;SDS011;26310;50.278;19.032;2022-07-18T23:29:57;7.30;;;4.73;;
40601;SDS011;26310;50.278;19.032;2022-07-18T23:35:00;7.73;;;4.80;;
40601;SDS011;26310;50.278;19.032;2022-07-18T23:40:04;8.70;;;5.13;;
40601;SDS011;26310;50.278;19.032;2022-07-18T23:45:08;7.03;;;4.27;;
40601;SDS011;26310;50.278;19.032;2022-07-18T23:50:12;8.07;;;4.73;;
40601;SDS011;26310;50.278;19.032;2022-07-18T23:55:16;9.57;;;4.68;;
